Time;durP1;ratioP1;P1;durP2;ratioP2;P2;SDS_P1;SDS_P2;PMS_P1;PMS_P2;Temp;Humidity;BMP_temperature;BMP_pressure;BME280_temperature;BME280_humidity;BME280_pressure;Samples;Min_cycle;Max_cycle;Signal;HPM_P1;HPM_P2
2021/12/24 00:00:48;;;;;;;118.15;31.95;;;;;;;;;;5013131;28;20050;-62
2021/12/24 00:03:14;;;;;;;135.27;33.22;;;;;;;;;;5012813;28;20069;-62
2021/12/24 00:05:41;;;;;;;119.28;31.08;;;;;;;;;;5012620;28;20044;-62
2021/12/24 00:08:08;;;;;;;135.70;33.45;;;;;;;;;;5012643;28;20042;-62
2021/12/24 00:10:34;;;;;;;115.82;32.85;;;;;;;;;;5012787;28;20034;-62
2021/12/24 00:13:05;;;;;;;112.00;31.77;;;;;;;;;;5012087;28;20431;-62
2021/12/24 00:18:13;;;;;;;118.65;30.98;;;;;;;;;;5012662;28;20358;-62
2021/12/24 00:36:49;;;;;;;86.47;25.58;;;;;;;;;;5012289;28;20172;-62
2021/12/24 00:39:15;;;;;;;97.97;26.45;;;;;;;;;;5012362;28;20764;-62
2021/12/24 00:41:41;;;;;;;90.97;25.88;;;;;;;;;;5011446;28;20070;-62
2021/12/24 00:44:07;;;;;;;89.50;25.55;;;;;;;;;;5012272;28;20033;-62
2021/12/24 00:46:34;;;;;;;77.82;23.50;;;;;;;;;;5012285;28;20453;-62
2021/12/24 00:49:01;;;;;;;83.60;24.15;;;;;;;;;;4993696;28;20045;-62
2021/12/24 00:52:06;;;;;;;71.53;22.08;;;;;;;;;;5011907;28;20049;-62
2021/12/24 00:57:17;;;;;;;60.20;21.05;;;;;;;;;;5011309;28;20080;-62
2021/12/24 00:59:43;;;;;;;61.42;20.58;;;;;;;;;;5012114;28;20087;-62
2021/12/24 01:02:09;;;;;;;60.67;19.95;;;;;;;;;;5012010;28;20046;-62
2021/12/24 01:04:35;;;;;;;59.20;19.92;;;;;;;;;;5011118;28;20129;-62
2021/12/24 01:07:01;;;;;;;54.55;18.88;;;;;;;;;;5011863;28;20045;-62
2021/12/24 01:09:27;;;;;;;57.15;18.80;;;;;;;;;;5011870;28;20465;-62
2021/12/24 01:11:53;;;;;;;60.67;19.73;;;;;;;;;;4993704;28;20042;-62
2021/12/24 01:14:21;;;;;;;58.85;18.23;;;;;;;;;;5012031;28;20042;-62
2021/12/24 01:16:58;;;;;;;49.67;17.58;;;;;;;;;;5011931;28;20116;-62
2021/12/24 01:19:26;;;;;;;46.78;17.10;;;;;;;;;;5011024;28;20045;-62
2021/12/24 01:24:51;;;;;;;47.10;16.13;;;;;;;;;;5011514;28;20084;-62
2021/12/24 01:27:40;;;;;;;48.20;16.30;;;;;;;;;;5011413;28;20046;-62
2021/12/24 01:37:52;;;;;;;42.55;15.60;;;;;;;;;;5011152;28;20144;-62
2021/12/24 01:38:36;;;;;;;44.10;15.35;;;;;;;;;;5011675;28;20135;-62
2021/12/24 01:41:09;;;;;;;43.67;15.50;;;;;;;;;;5010772;28;20053;-62
2021/12/24 01:43:35;;;;;;;41.13;15.18;;;;;;;;;;5011501;28;20050;-62
2021/12/24 01:46:03;;;;;;;48.10;15.27;;;;;;;;;;5015481;28;20061;-62
2021/12/24 01:48:29;;;;;;;43.05;16.10;;;;;;;;;;5014523;28;20081;-62
2021/12/24 01:50:55;;;;;;;41.65;15.05;;;;;;;;;;5015403;28;20091;-62
2021/12/24 01:53:23;;;;;;;38.58;14.27;;;;;;;;;;5015406;28;20042;-62
2021/12/24 01:55:50;;;;;;;35.72;13.88;;;;;;;;;;5014777;28;20040;-62
2021/12/24 01:58:23;;;;;;;37.28;13.88;;;;;;;;;;5014980;28;20128;-62
2021/12/24 02:00:50;;;;;;;34.95;13.05;;;;;;;;;;5015106;28;20041;-62
2021/12/24 02:03:17;;;;;;;29.92;12.82;;;;;;;;;;5014580;28;20100;-62
2021/12/24 02:05:43;;;;;;;27.83;12.15;;;;;;;;;;5015147;28;20037;-62
2021/12/24 02:08:10;;;;;;;29.63;12.02;;;;;;;;;;5015181;28;20124;-62
2021/12/24 02:10:36;;;;;;;33.72;12.68;;;;;;;;;;5014487;28;20033;-62
2021/12/24 02:13:03;;;;;;;32.38;12.02;;;;;;;;;;5014615;28;20080;-62
2021/12/24 02:18:36;;;;;;;29.58;12.43;;;;;;;;;;5014272;28;20116;-62
2021/12/24 02:29:15;;;;;;;26.35;11.88;;;;;;;;;;5014242;28;20100;-62
2021/12/24 02:31:41;;;;;;;30.02;11.70;;;;;;;;;;5014026;28;20050;-62
2021/12/24 02:34:07;;;;;;;28.00;12.10;;;;;;;;;;5014625;28;20045;-62
2021/12/24 02:36:33;;;;;;;25.00;11.85;;;;;;;;;;5014821;28;20120;-62
2021/12/24 02:39:00;;;;;;;24.92;10.88;;;;;;;;;;5013747;28;20080;-62
2021/12/24 02:41:26;;;;;;;24.52;10.93;;;;;;;;;;5014663;28;20513;-62
2021/12/24 02:43:52;;;;;;;31.00;11.95;;;;;;;;;;5014482;28;20185;-62
2021/12/24 02:46:39;;;;;;;25.30;11.20;;;;;;;;;;5013611;28;20045;-62
2021/12/24 02:49:16;;;;;;;30.25;11.43;;;;;;;;;;5014337;28;20100;-62
2021/12/24 02:54:27;;;;;;;28.83;12.02;;;;;;;;;;5013449;28;20045;-62
2021/12/24 02:56:54;;;;;;;30.42;12.13;;;;;;;;;;5013998;28;20050;-62
2021/12/24 02:59:26;;;;;;;30.55;12.02;;;;;;;;;;5013904;28;20042;-62
2021/12/24 03:01:53;;;;;;;31.83;12.50;;;;;;;;;;5013456;28;20045;-62
2021/12/24 03:04:19;;;;;;;36.50;12.93;;;;;;;;;;5014097;28;20088;-62
2021/12/24 03:06:47;;;;;;;40.10;13.55;;;;;;;;;;5014041;28;20107;-62
2021/12/24 03:09:15;;;;;;;41.65;13.45;;;;;;;;;;5013220;28;20096;-62
2021/12/24 03:11:42;;;;;;;37.28;12.88;;;;;;;;;;5014117;28;20041;-62
2021/12/24 03:14:09;;;;;;;36.97;12.63;;;;;;;;;;5013812;28;20388;-62
2021/12/24 03:16:36;;;;;;;41.15;13.07;;;;;;;;;;5013465;28;20468;-62
2021/12/24 03:19:03;;;;;;;40.53;13.80;;;;;;;;;;5013648;28;20064;-62
2021/12/24 03:21:38;;;;;;;38.35;13.52;;;;;;;;;;5013814;28;20476;-62
2021/12/24 03:26:31;;;;;;;46.97;14.73;;;;;;;;;;5013770;28;20045;-62
2021/12/24 03:28:57;;;;;;;48.72;13.70;;;;;;;;;;5013270;28;20136;-62
2021/12/24 03:31:23;;;;;;;43.00;13.50;;;;;;;;;;5012872;28;20052;-62
2021/12/24 03:33:53;;;;;;;37.55;13.43;;;;;;;;;;5013413;28;20042;-62
2021/12/24 03:36:19;;;;;;;43.10;14.05;;;;;;;;;;5013623;28;20037;-62
2021/12/24 03:38:45;;;;;;;36.22;13.50;;;;;;;;;;5012916;28;20053;-62
2021/12/24 03:41:11;;;;;;;41.13;13.23;;;;;;;;;;5013462;28;20049;-62
2021/12/24 03:43:37;;;;;;;37.58;12.15;;;;;;;;;;5013268;28;20084;-62
2021/12/24 03:46:08;;;;;;;39.70;12.38;;;;;;;;;;5012478;28;20042;-62
2021/12/24 03:48:57;;;;;;;40.17;12.48;;;;;;;;;;5013241;28;20048;-62
2021/12/24 03:56:38;;;;;;;36.10;13.13;;;;;;;;;;5013156;28;20579;-62
2021/12/24 03:59:05;;;;;;;41.42;13.50;;;;;;;;;;5013154;28;20097;-62
2021/12/24 04:01:31;;;;;;;49.55;16.10;;;;;;;;;;5012187;28;20041;-62
2021/12/24 04:03:57;;;;;;;52.70;16.52;;;;;;;;;;5012888;28;20053;-62
2021/12/24 04:06:24;;;;;;;56.63;19.17;;;;;;;;;;5012349;28;20042;-62
2021/12/24 04:08:50;;;;;;;55.97;17.52;;;;;;;;;;5011593;28;20125;-62
2021/12/24 04:11:16;;;;;;;48.95;17.77;;;;;;;;;;5012550;28;20042;-62
2021/12/24 04:13:42;;;;;;;46.58;17.30;;;;;;;;;;5012769;28;20536;-62
2021/12/24 04:16:09;;;;;;;47.00;17.75;;;;;;;;;;5012167;28;20481;-62
2021/12/24 04:18:43;;;;;;;60.45;19.90;;;;;;;;;;5012475;28;20053;-62
2021/12/24 04:26:40;;;;;;;63.88;21.85;;;;;;;;;;5012604;28;20484;-62
2021/12/24 04:29:06;;;;;;;55.90;20.65;;;;;;;;;;5012048;28;20056;-62
2021/12/24 04:31:53;;;;;;;53.05;20.85;;;;;;;;;;5011517;28;20065;-62
2021/12/24 04:34:25;;;;;;;61.17;21.38;;;;;;;;;;5012329;28;20087;-62
2021/12/24 04:37:35;;;;;;;50.55;20.90;;;;;;;;;;5012510;28;20041;-62
2021/12/24 04:51:02;;;;;;;57.80;20.08;;;;;;;;;;5011963;28;20136;-62
2021/12/24 04:51:02;;;;;;;51.05;20.60;;;;;;;;;;5012274;28;20069;-62
2021/12/24 05:01:42;;;;;;;56.67;21.70;;;;;;;;;;5011515;28;20419;-62
2021/12/24 05:04:10;;;;;;;59.47;21.90;;;;;;;;;;5011905;28;20045;-62
2021/12/24 05:06:41;;;;;;;61.35;21.02;;;;;;;;;;5012049;28;20072;-62
2021/12/24 05:09:10;;;;;;;58.67;21.80;;;;;;;;;;5011548;28;20120;-62
2021/12/24 05:11:37;;;;;;;65.30;22.52;;;;;;;;;;5011997;28;20041;-62
2021/12/24 05:14:04;;;;;;;60.55;21.05;;;;;;;;;;5011789;28;20033;-62
2021/12/24 05:16:42;;;;;;;52.20;19.67;;;;;;;;;;5011240;28;20038;-62
2021/12/24 05:21:42;;;;;;;53.28;20.02;;;;;;;;;;5011180;28;20064;-62
2021/12/24 05:24:12;;;;;;;58.35;20.35;;;;;;;;;;5011507;28;20049;-63
2021/12/24 05:26:38;;;;;;;70.28;21.83;;;;;;;;;;5011860;28;20045;-62
2021/12/24 05:29:05;;;;;;;54.13;21.20;;;;;;;;;;5010829;28;20050;-62
2021/12/24 05:31:31;;;;;;;53.50;20.73;;;;;;;;;;5011777;28;20046;-62
2021/12/24 05:33:58;;;;;;;53.05;20.40;;;;;;;;;;5011531;28;20034;-62
2021/12/24 05:36:24;;;;;;;58.08;20.83;;;;;;;;;;5011148;28;20491;-62
2021/12/24 05:38:50;;;;;;;58.30;20.33;;;;;;;;;;5011907;28;20490;-62
2021/12/24 05:41:18;;;;;;;67.45;22.13;;;;;;;;;;5011633;28;20053;-62
2021/12/24 05:43:45;;;;;;;67.78;22.20;;;;;;;;;;5010770;28;20042;-62
2021/12/24 05:46:11;;;;;;;60.00;22.33;;;;;;;;;;5011538;28;20042;-62
2021/12/24 05:48:37;;;;;;;61.30;21.65;;;;;;;;;;5011365;28;20041;-62
2021/12/24 05:51:03;;;;;;;68.65;21.98;;;;;;;;;;5011379;28;20050;-62
2021/12/24 05:53:29;;;;;;;57.25;19.73;;;;;;;;;;5010708;28;20038;-62
2021/12/24 05:55:55;;;;;;;58.58;21.33;;;;;;;;;;5011473;28;20033;-62
2021/12/24 05:58:22;;;;;;;59.67;20.67;;;;;;;;;;5011546;28;20130;-62
2021/12/24 06:00:48;;;;;;;52.88;20.10;;;;;;;;;;5010758;28;20042;-62
2021/12/24 06:03:14;;;;;;;48.15;19.17;;;;;;;;;;5011301;28;20068;-62
2021/12/24 06:05:41;;;;;;;57.40;18.98;;;;;;;;;;5011228;28;20037;-62
2021/12/24 06:08:07;;;;;;;55.05;17.33;;;;;;;;;;5010529;28;20400;-62
2021/12/24 06:10:34;;;;;;;43.38;16.50;;;;;;;;;;5011673;28;20038;-62
2021/12/24 06:13:00;;;;;;;47.63;17.40;;;;;;;;;;5011345;28;20473;-62
2021/12/24 06:15:27;;;;;;;36.05;14.77;;;;;;;;;;5010534;28;20590;-62
2021/12/24 06:17:55;;;;;;;33.45;14.48;;;;;;;;;;5011370;28;20041;-62
2021/12/24 06:20:22;;;;;;;33.72;14.02;;;;;;;;;;5011310;28;20071;-62
2021/12/24 06:22:48;;;;;;;39.95;15.13;;;;;;;;;;5010187;28;20045;-62
2021/12/24 06:25:15;;;;;;;40.72;15.38;;;;;;;;;;5010885;28;20042;-62
2021/12/24 06:27:41;;;;;;;48.38;15.10;;;;;;;;;;5011329;28;20042;-62
2021/12/24 06:30:08;;;;;;;41.03;14.98;;;;;;;;;;5010635;28;20060;-62
2021/12/24 06:32:34;;;;;;;45.60;15.43;;;;;;;;;;5014593;28;20034;-62
2021/12/24 06:35:00;;;;;;;37.63;14.35;;;;;;;;;;5014558;28;20095;-62
2021/12/24 06:37:26;;;;;;;37.25;14.45;;;;;;;;;;5013359;28;20042;-62
2021/12/24 06:39:54;;;;;;;41.63;14.55;;;;;;;;;;5014537;28;20436;-62
2021/12/24 06:42:20;;;;;;;44.90;14.48;;;;;;;;;;5014436;28;20050;-62
2021/12/24 06:44:46;;;;;;;42.88;14.35;;;;;;;;;;5013681;28;20064;-62
2021/12/24 06:47:12;;;;;;;34.90;12.80;;;;;;;;;;5014368;28;20073;-62
2021/12/24 06:49:38;;;;;;;33.67;12.70;;;;;;;;;;5013897;28;20640;-62
2021/12/24 06:52:05;;;;;;;35.13;11.93;;;;;;;;;;5013603;28;20555;-62
2021/12/24 06:54:33;;;;;;;31.02;11.25;;;;;;;;;;5014514;28;20034;-62
2021/12/24 06:56:59;;;;;;;33.22;11.25;;;;;;;;;;5014405;28;20042;-62
2021/12/24 06:59:25;;;;;;;39.60;10.52;;;;;;;;;;5013470;28;20184;-62
2021/12/24 07:01:51;;;;;;;31.27;10.57;;;;;;;;;;5013703;28;20124;-62
2021/12/24 07:04:17;;;;;;;31.75;10.93;;;;;;;;;;5013852;28;20046;-62
2021/12/24 07:06:45;;;;;;;25.77;9.05;;;;;;;;;;5013249;28;20041;-62
2021/12/24 07:09:11;;;;;;;41.13;10.32;;;;;;;;;;4995628;28;20400;-62
2021/12/24 07:11:37;;;;;;;29.10;9.43;;;;;;;;;;5013686;28;20109;-62
2021/12/24 07:14:03;;;;;;;25.58;9.73;;;;;;;;;;5012840;28;20575;-62
2021/12/24 07:16:29;;;;;;;27.27;8.27;;;;;;;;;;5013345;28;20089;-62
2021/12/24 07:18:55;;;;;;;22.40;8.45;;;;;;;;;;5013013;28;20049;-62
2021/12/24 07:21:21;;;;;;;25.67;8.70;;;;;;;;;;5013448;28;20480;-60
2021/12/24 07:23:48;;;;;;;29.63;8.73;;;;;;;;;;5012869;28;20112;-59
2021/12/24 07:26:14;;;;;;;33.25;8.45;;;;;;;;;;5013418;28;20069;-60
2021/12/24 07:28:40;;;;;;;27.58;7.95;;;;;;;;;;5012200;28;20449;-62
2021/12/24 07:31:06;;;;;;;25.00;8.45;;;;;;;;;;5013305;28;20533;-62
2021/12/24 07:33:32;;;;;;;29.15;9.35;;;;;;;;;;5013170;28;20392;-60
2021/12/24 07:35:58;;;;;;;27.13;8.07;;;;;;;;;;5012884;28;20049;-59
2021/12/24 07:38:24;;;;;;;23.45;8.05;;;;;;;;;;5013027;28;20480;-59
2021/12/24 07:40:50;;;;;;;29.63;8.35;;;;;;;;;;5013116;28;20146;-60
2021/12/24 07:43:16;;;;;;;25.30;8.57;;;;;;;;;;5011519;28;20096;-57
2021/12/24 07:45:44;;;;;;;28.75;8.20;;;;;;;;;;5012932;28;20112;-57
2021/12/24 07:48:15;;;;;;;21.92;7.95;;;;;;;;;;5012954;28;20072;-61
2021/12/24 07:53:09;;;;;;;22.27;7.80;;;;;;;;;;5012747;28;20037;-60
2021/12/24 07:55:36;;;;;;;19.25;7.28;;;;;;;;;;5012967;28;20045;-60
2021/12/24 07:58:03;;;;;;;20.17;7.78;;;;;;;;;;5011839;28;20088;-61
2021/12/24 08:00:29;;;;;;;27.13;7.72;;;;;;;;;;5012801;28;20038;-61
2021/12/24 08:02:56;;;;;;;24.02;7.28;;;;;;;;;;5012572;28;20084;-60
2021/12/24 08:05:25;;;;;;;23.70;6.68;;;;;;;;;;5011979;28;20091;-61
2021/12/24 08:07:51;;;;;;;21.38;6.47;;;;;;;;;;5012833;28;20046;-60
2021/12/24 08:10:17;;;;;;;27.20;6.65;;;;;;;;;;5012399;28;20038;-62
2021/12/24 08:12:43;;;;;;;29.92;6.78;;;;;;;;;;5011786;28;20523;-62
2021/12/24 08:15:10;;;;;;;21.98;6.30;;;;;;;;;;5012135;28;20041;-62
2021/12/24 08:17:36;;;;;;;19.08;6.53;;;;;;;;;;5012445;28;20520;-62
2021/12/24 08:20:04;;;;;;;21.65;5.88;;;;;;;;;;5011834;28;20128;-61
2021/12/24 08:22:30;;;;;;;18.67;6.00;;;;;;;;;;5011896;28;20070;-61
2021/12/24 08:24:56;;;;;;;22.58;6.15;;;;;;;;;;5012481;28;20089;-61
2021/12/24 08:27:22;;;;;;;26.38;5.72;;;;;;;;;;5011176;28;20049;-61
2021/12/24 08:29:49;;;;;;;24.45;6.20;;;;;;;;;;5011494;28;20105;-61
2021/12/24 08:32:15;;;;;;;26.42;6.47;;;;;;;;;;5012090;28;20089;-61
2021/12/24 08:34:41;;;;;;;27.20;7.15;;;;;;;;;;5011492;28;20103;-62
2021/12/24 08:37:08;;;;;;;28.33;6.82;;;;;;;;;;5012280;28;20113;-60
2021/12/24 08:39:34;;;;;;;23.88;5.47;;;;;;;;;;5012415;28;20037;-60
2021/12/24 08:42:00;;;;;;;30.38;6.55;;;;;;;;;;5011226;28;20034;-60
2021/12/24 08:44:27;;;;;;;31.65;6.05;;;;;;;;;;5011917;28;20064;-60
2021/12/24 08:46:54;;;;;;;28.70;6.57;;;;;;;;;;5011917;28;20048;-61
2021/12/24 08:49:21;;;;;;;33.08;6.32;;;;;;;;;;5011251;28;20041;-61
2021/12/24 08:51:48;;;;;;;21.60;5.57;;;;;;;;;;5011920;28;20488;-61
2021/12/24 08:54:14;;;;;;;30.13;6.40;;;;;;;;;;5011556;28;20127;-61
2021/12/24 08:56:40;;;;;;;27.77;5.88;;;;;;;;;;5011279;28;20092;-62
2021/12/24 08:59:06;;;;;;;28.85;5.85;;;;;;;;;;5011872;28;20038;-61
2021/12/24 09:01:33;;;;;;;26.75;5.93;;;;;;;;;;5011094;28;20042;-61
2021/12/24 09:04:00;;;;;;;29.33;5.93;;;;;;;;;;5011068;28;20042;-60
2021/12/24 09:06:26;;;;;;;29.33;6.55;;;;;;;;;;5011911;28;20049;-60
2021/12/24 09:08:52;;;;;;;20.95;4.93;;;;;;;;;;5011547;28;20120;-60
2021/12/24 09:11:18;;;;;;;18.40;5.05;;;;;;;;;;5011229;28;20671;-61
2021/12/24 09:13:45;;;;;;;21.33;4.75;;;;;;;;;;5011224;28;20033;-61
2021/12/24 09:16:11;;;;;;;21.90;4.63;;;;;;;;;;5011862;28;20042;-61
2021/12/24 09:18:40;;;;;;;23.85;5.18;;;;;;;;;;5010764;28;20045;-61
2021/12/24 09:21:14;;;;;;;22.35;5.30;;;;;;;;;;5011589;28;20050;-61
2021/12/24 09:23:42;;;;;;;16.85;5.40;;;;;;;;;;5011402;28;20046;-61
2021/12/24 09:26:08;;;;;;;25.05;7.22;;;;;;;;;;5010725;28;20104;-62
2021/12/24 09:28:34;;;;;;;19.83;6.15;;;;;;;;;;5011152;28;20092;-62
2021/12/24 09:31:00;;;;;;;18.45;5.47;;;;;;;;;;5011615;28;20073;-61
2021/12/24 09:33:26;;;;;;;21.98;6.53;;;;;;;;;;5010306;28;20611;-61
2021/12/24 09:35:52;;;;;;;19.60;5.82;;;;;;;;;;5011396;28;20129;-62
2021/12/24 09:38:18;;;;;;;21.88;5.75;;;;;;;;;;4993492;28;20104;-61
2021/12/24 09:40:44;;;;;;;23.33;5.93;;;;;;;;;;5010783;28;20092;-61
2021/12/24 09:43:10;;;;;;;22.02;5.80;;;;;;;;;;5011578;28;20042;-62
2021/12/24 09:45:36;;;;;;;23.30;5.35;;;;;;;;;;5010942;28;20042;-61
2021/12/24 09:48:03;;;;;;;26.65;5.93;;;;;;;;;;5010339;28;20046;-61
2021/12/24 09:50:29;;;;;;;26.65;5.97;;;;;;;;;;4989246;28;20050;-61
2021/12/24 09:52:55;;;;;;;18.98;5.50;;;;;;;;;;5021799;28;20125;-61
2021/12/24 09:55:24;;;;;;;20.83;5.78;;;;;;;;;;5010917;28;20044;-60
2021/12/24 09:57:50;;;;;;;26.15;5.60;;;;;;;;;;5009943;28;20074;-60
2021/12/24 10:00:18;;;;;;;22.30;5.55;;;;;;;;;;5011297;28;20041;-59
2021/12/24 10:02:47;;;;;;;21.95;6.15;;;;;;;;;;5010934;28;20736;-61
2021/12/24 10:05:42;;;;;;;16.95;5.40;;;;;;;;;;5011803;28;20076;-57
2021/12/24 10:08:11;;;;;;;25.63;5.30;;;;;;;;;;5001769;28;20053;-59
2021/12/24 10:10:41;;;;;;;17.50;6.13;;;;;;;;;;5013740;28;20115;-59
2021/12/24 10:13:25;;;;;;;21.98;6.80;;;;;;;;;;5014533;28;20089;-60
2021/12/24 10:15:52;;;;;;;23.83;6.60;;;;;;;;;;5014729;28;20049;-59
2021/12/24 10:18:35;;;;;;;19.42;6.15;;;;;;;;;;5013799;28;20085;-60
2021/12/24 10:21:08;;;;;;;24.40;6.13;;;;;;;;;;5014678;28;20042;-59
2021/12/24 10:23:43;;;;;;;23.48;6.05;;;;;;;;;;5014424;28;20461;-61
2021/12/24 10:26:19;;;;;;;19.13;6.35;;;;;;;;;;5013351;28;20042;-59
2021/12/24 10:29:11;;;;;;;26.20;6.22;;;;;;;;;;5013481;28;20057;-60
2021/12/24 10:31:46;;;;;;;30.42;6.38;;;;;;;;;;5010247;28;20478;-60
2021/12/24 10:34:13;;;;;;;26.92;6.57;;;;;;;;;;4995870;28;20092;-59
2021/12/24 10:36:55;;;;;;;30.70;7.10;;;;;;;;;;5014202;28;20037;-60
2021/12/24 10:39:22;;;;;;;36.70;7.60;;;;;;;;;;5014429;28;20041;-59
2021/12/24 10:41:50;;;;;;;24.40;6.03;;;;;;;;;;5013453;28;20050;-58
2021/12/24 10:44:17;;;;;;;21.75;6.63;;;;;;;;;;5014394;28;20089;-60
2021/12/24 10:46:58;;;;;;;27.17;6.57;;;;;;;;;;5014120;28;20050;-60
2021/12/24 10:49:48;;;;;;;18.80;5.55;;;;;;;;;;5012501;28;20057;-61
2021/12/24 10:52:28;;;;;;;20.25;6.05;;;;;;;;;;5013678;28;20081;-61
2021/12/24 10:54:59;;;;;;;23.33;6.10;;;;;;;;;;4995720;28;20046;-61
2021/12/24 10:57:35;;;;;;;21.42;5.82;;;;;;;;;;5013417;28;20038;-60
2021/12/24 11:00:04;;;;;;;17.58;6.00;;;;;;;;;;5013703;28;20053;-60
2021/12/24 11:02:31;;;;;;;20.38;5.22;;;;;;;;;;5013025;28;20072;-61
2021/12/24 11:04:57;;;;;;;14.57;4.88;;;;;;;;;;5013555;28;20029;-61
2021/12/24 11:07:42;;;;;;;13.63;3.97;;;;;;;;;;5013680;28;20038;-61
2021/12/24 11:10:12;;;;;;;14.05;3.80;;;;;;;;;;5012644;28;20044;-61
2021/12/24 11:12:41;;;;;;;19.48;4.95;;;;;;;;;;5013896;28;20091;-60
2021/12/24 11:15:26;;;;;;;15.85;3.53;;;;;;;;;;5013627;28;20392;-61
2021/12/24 11:17:53;;;;;;;17.40;3.53;;;;;;;;;;5012227;28;20448;-60
2021/12/24 11:20:20;;;;;;;11.65;3.10;;;;;;;;;;5012613;28;20149;-61
2021/12/24 11:22:56;;;;;;;14.30;3.45;;;;;;;;;;5013057;28;20053;-61
2021/12/24 11:25:24;;;;;;;10.38;3.17;;;;;;;;;;5012483;28;20443;-59
2021/12/24 11:27:50;;;;;;;12.20;2.90;;;;;;;;;;5012786;28;20060;-61
2021/12/24 11:30:16;;;;;;;5.18;1.60;;;;;;;;;;5012695;28;20053;-60
2021/12/24 11:32:43;;;;;;;2.17;1.20;;;;;;;;;;5012564;28;20045;-61
2021/12/24 11:35:10;;;;;;;2.30;1.33;;;;;;;;;;5012779;28;20070;-61
2021/12/24 11:37:37;;;;;;;2.53;1.40;;;;;;;;;;5012812;28;20451;-60
2021/12/24 11:40:04;;;;;;;1.88;1.30;;;;;;;;;;5012251;28;20639;-59
2021/12/24 11:42:33;;;;;;;1.35;1.08;;;;;;;;;;5013118;28;20048;-59
2021/12/24 11:45:00;;;;;;;1.25;1.15;;;;;;;;;;4995471;28;20046;-60
2021/12/24 11:47:27;;;;;;;1.35;1.10;;;;;;;;;;5012546;28;20517;-60
2021/12/24 11:49:53;;;;;;;1.85;1.08;;;;;;;;;;5013269;28;20122;-59
2021/12/24 11:52:19;;;;;;;1.88;1.63;;;;;;;;;;5012554;28;20037;-60
2021/12/24 11:54:45;;;;;;;1.27;1.17;;;;;;;;;;5012155;28;20380;-60
2021/12/24 11:57:20;;;;;;;1.25;1.15;;;;;;;;;;5012661;28;20045;-60
2021/12/24 11:59:47;;;;;;;1.88;1.70;;;;;;;;;;5012559;28;20045;-61
2021/12/24 12:02:33;;;;;;;1.95;1.73;;;;;;;;;;4993847;28;20436;-59
2021/12/24 12:05:14;;;;;;;2.20;1.70;;;;;;;;;;5012004;28;20132;-59
2021/12/24 12:07:40;;;;;;;1.60;1.50;;;;;;;;;;5012286;28;20046;-59
2021/12/24 12:10:07;;;;;;;1.60;1.42;;;;;;;;;;5011538;28;20053;-60
2021/12/24 12:12:38;;;;;;;1.50;1.38;;;;;;;;;;5012514;28;20045;-60
2021/12/24 12:15:23;;;;;;;1.70;1.60;;;;;;;;;;5012272;28;20052;-58
2021/12/24 12:17:52;;;;;;;1.73;1.55;;;;;;;;;;5011258;28;20136;-60
2021/12/24 12:20:39;;;;;;;1.67;1.58;;;;;;;;;;5012107;28;20157;-58
2021/12/24 12:23:08;;;;;;;2.08;1.80;;;;;;;;;;5011637;28;20080;-60
2021/12/24 12:25:36;;;;;;;2.97;1.80;;;;;;;;;;5011343;28;20481;-60
2021/12/24 12:28:07;;;;;;;2.58;1.80;;;;;;;;;;5011184;28;20133;-60
2021/12/24 12:30:49;;;;;;;1.80;1.70;;;;;;;;;;5011978;28;20050;-60
2021/12/24 12:33:15;;;;;;;;;;;;;;;;;;5012655;28;20087;-61
2021/12/24 12:35:43;;;;;;;1.63;1.52;;;;;;;;;;5012238;28;20018;-60
2021/12/24 12:38:28;;;;;;;1.70;1.60;;;;;;;;;;5011505;28;20065;-61
2021/12/24 12:40:55;;;;;;;1.30;1.20;;;;;;;;;;5012508;28;20050;-62
2021/12/24 12:43:22;;;;;;;1.50;1.40;;;;;;;;;;5012199;28;20045;-62
2021/12/24 12:45:48;;;;;;;1.60;1.50;;;;;;;;;;5011004;28;20046;-61
2021/12/24 12:48:25;;;;;;;2.38;2.00;;;;;;;;;;5011998;28;20041;-61
2021/12/24 12:50:56;;;;;;;1.60;1.50;;;;;;;;;;5011929;28;20048;-61
2021/12/24 12:53:28;;;;;;;2.72;2.03;;;;;;;;;;5011046;28;20149;-61
2021/12/24 12:56:13;;;;;;;3.38;2.50;;;;;;;;;;5011844;28;20124;-61
2021/12/24 12:58:39;;;;;;;3.45;2.33;;;;;;;;;;5011554;28;20045;-61
2021/12/24 13:01:10;;;;;;;2.00;1.80;;;;;;;;;;5011006;28;20045;-61
2021/12/24 13:03:55;;;;;;;2.13;1.90;;;;;;;;;;5011330;28;20056;-60
2021/12/24 13:06:38;;;;;;;2.05;1.80;;;;;;;;;;4993827;28;20050;-60
2021/12/24 13:09:06;;;;;;;2.17;1.65;;;;;;;;;;5010700;28;20540;-61
2021/12/24 13:11:44;;;;;;;1.60;1.50;;;;;;;;;;5011314;28;20054;-61
2021/12/24 13:14:10;;;;;;;2.30;1.70;;;;;;;;;;5011026;28;20038;-61
2021/12/24 13:16:43;;;;;;;2.78;1.80;;;;;;;;;;5010772;28;20046;-60
2021/12/24 13:24:38;;;;;;;2.20;1.85;;;;;;;;;;5010781;28;20048;-61
2021/12/24 13:27:04;;;;;;;1.77;1.65;;;;;;;;;;5011362;28;20586;-61
2021/12/24 13:29:30;;;;;;;1.90;1.50;;;;;;;;;;5010672;28;20133;-60
2021/12/24 13:31:57;;;;;;;1.45;1.25;;;;;;;;;;5010852;28;20416;-60
2021/12/24 13:34:25;;;;;;;3.00;1.13;;;;;;;;;;5011583;28;20131;-60
2021/12/24 13:36:51;;;;;;;1.73;1.40;;;;;;;;;;5011726;28;20073;-60
2021/12/24 13:39:18;;;;;;;2.33;1.70;;;;;;;;;;5011665;28;20129;-60
2021/12/24 13:41:45;;;;;;;1.40;1.30;;;;;;;;;;5015436;28;20041;-60
2021/12/24 13:44:21;;;;;;;1.95;1.42;;;;;;;;;;5015381;28;20116;-60
2021/12/24 13:46:57;;;;;;;1.25;1.15;;;;;;;;;;5014805;28;20461;-60
2021/12/24 13:49:40;;;;;;;1.52;1.33;;;;;;;;;;5015109;28;20081;-60
2021/12/24 13:54:51;;;;;;;1.98;1.33;;;;;;;;;;5014775;28;20107;-60
2021/12/24 13:57:18;;;;;;;1.77;1.50;;;;;;;;;;5015192;28;20440;-60
2021/12/24 13:59:50;;;;;;;2.10;1.60;;;;;;;;;;5014457;28;20054;-60
2021/12/24 14:02:16;;;;;;;3.08;1.30;;;;;;;;;;5015405;28;20112;-60
2021/12/24 14:04:42;;;;;;;1.40;1.27;;;;;;;;;;5015385;28;20533;-60
2021/12/24 14:07:09;;;;;;;2.95;1.42;;;;;;;;;;5014646;28;20390;-60
2021/12/24 14:09:35;;;;;;;2.60;1.55;;;;;;;;;;5015087;28;20058;-60
2021/12/24 14:12:06;;;;;;;2.92;1.60;;;;;;;;;;5015243;28;20397;-60
2021/12/24 14:14:44;;;;;;;3.30;1.67;;;;;;;;;;5014369;28;20045;-60
2021/12/24 14:17:47;;;;;;;2.30;1.75;;;;;;;;;;5015264;28;20133;-60
2021/12/24 14:20:25;;;;;;;1.98;1.70;;;;;;;;;;5014604;28;20116;-60
2021/12/24 14:22:51;;;;;;;2.33;1.77;;;;;;;;;;5013871;28;20404;-60
2021/12/24 14:25:17;;;;;;;2.00;1.73;;;;;;;;;;5014844;28;20129;-60
2021/12/24 14:27:48;;;;;;;3.83;2.03;;;;;;;;;;5014654;28;20104;-60
2021/12/24 14:30:17;;;;;;;2.90;2.40;;;;;;;;;;5013679;28;20058;-60
2021/12/24 14:32:44;;;;;;;3.72;2.47;;;;;;;;;;4996784;28;20112;-60
2021/12/24 14:35:15;;;;;;;3.42;2.42;;;;;;;;;;5014802;28;20041;-60
2021/12/24 14:37:41;;;;;;;3.85;2.28;;;;;;;;;;5013823;28;20042;-60
2021/12/24 14:40:07;;;;;;;2.28;1.85;;;;;;;;;;5014793;28;20037;-60
2021/12/24 14:42:36;;;;;;;3.90;1.92;;;;;;;;;;5014235;28;20124;-60
2021/12/24 14:45:12;;;;;;;2.80;2.17;;;;;;;;;;5013971;28;20042;-60
2021/12/24 14:47:39;;;;;;;2.88;2.35;;;;;;;;;;5014485;28;20034;-60
2021/12/24 14:50:07;;;;;;;3.38;2.50;;;;;;;;;;5014499;28;20527;-60
2021/12/24 14:52:33;;;;;;;3.63;2.72;;;;;;;;;;5012926;28;20489;-60
2021/12/24 14:55:11;;;;;;;3.60;2.35;;;;;;;;;;5014236;28;20091;-60
2021/12/24 14:58:03;;;;;;;3.40;2.45;;;;;;;;;;5014333;28;20042;-60
2021/12/24 15:00:41;;;;;;;4.25;2.53;;;;;;;;;;5009750;28;20105;-60
2021/12/24 15:03:11;;;;;;;3.25;2.40;;;;;;;;;;5013903;28;20481;-60
2021/12/24 15:05:43;;;;;;;3.95;2.70;;;;;;;;;;5014216;28;20457;-60
2021/12/24 15:08:15;;;;;;;2.78;2.30;;;;;;;;;;5013493;28;20548;-60
2021/12/24 15:10:54;;;;;;;2.40;2.15;;;;;;;;;;5013877;28;20113;-60
2021/12/24 15:13:20;;;;;;;3.75;3.20;;;;;;;;;;5013608;28;20041;-60
2021/12/24 15:15:50;;;;;;;6.55;3.20;;;;;;;;;;5013132;28;20042;-60
2021/12/24 15:18:16;;;;;;;4.88;2.90;;;;;;;;;;4996265;28;20045;-60
2021/12/24 15:20:42;;;;;;;5.20;3.90;;;;;;;;;;5013854;28;20042;-60
2021/12/24 15:23:09;;;;;;;5.95;3.25;;;;;;;;;;5012866;28;20080;-60
2021/12/24 15:25:36;;;;;;;5.45;3.00;;;;;;;;;;5013838;28;20076;-60
2021/12/24 15:28:07;;;;;;;6.32;3.45;;;;;;;;;;5013263;28;20046;-60
2021/12/24 15:30:34;;;;;;;6.70;3.67;;;;;;;;;;5012807;28;20443;-60
2021/12/24 15:33:00;;;;;;;7.32;3.42;;;;;;;;;;5013636;28;20714;-60
2021/12/24 15:35:26;;;;;;;5.38;3.30;;;;;;;;;;5013406;28;20053;-60
2021/12/24 15:37:52;;;;;;;6.20;4.20;;;;;;;;;;5012980;28;20180;-60
2021/12/24 15:40:18;;;;;;;13.18;7.05;;;;;;;;;;4979834;28;20124;-60
2021/12/24 15:42:44;;;;;;;125.00;66.13;;;;;;;;;;5013521;28;20048;-60
2021/12/24 15:45:10;;;;;;;122.07;64.40;;;;;;;;;;5013176;28;20054;-60
2021/12/24 15:47:36;;;;;;;59.10;34.25;;;;;;;;;;5013318;28;20045;-60
2021/12/24 15:50:04;;;;;;;29.50;14.73;;;;;;;;;;5013163;28;20046;-60
2021/12/24 15:52:30;;;;;;;10.65;7.18;;;;;;;;;;4994911;28;20120;-60
2021/12/24 15:54:56;;;;;;;8.73;5.07;;;;;;;;;;4995411;28;20096;-60
2021/12/24 15:57:22;;;;;;;8.07;3.78;;;;;;;;;;5013447;28;20038;-60
2021/12/24 15:59:48;;;;;;;7.28;3.70;;;;;;;;;;5012600;28;20132;-60
2021/12/24 16:02:14;;;;;;;9.38;4.07;;;;;;;;;;5012645;28;20033;-60
2021/12/24 16:04:40;;;;;;;4.78;2.97;;;;;;;;;;5012774;28;20500;-60
2021/12/24 16:07:06;;;;;;;3.55;2.15;;;;;;;;;;5012237;28;20045;-60